Time;durP1;ratioP1;P1;durP2;ratioP2;P2;SDS_P1;SDS_P2;PMS_P1;PMS_P2;Temp;Humidity;BMP_temperature;BMP_pressure;BME280_temperature;BME280_humidity;BME280_pressure;Samples;Min_cycle;Max_cycle;Signal;HPM_P1;HPM_P2
2021/11/28 00:01:44;;;;;;;48.15;33.40;;;20.20;95.20;;;;;;4176881;28;20495;-74
2021/11/28 00:04:10;;;;;;;48.28;33.88;;;20.30;94.90;;;;;;4190522;28;20556;-73
2021/11/28 00:06:36;;;;;;;43.45;32.90;;;20.50;94.30;;;;;;4176823;28;20055;-73
2021/11/28 00:11:33;;;;;;;63.53;39.72;;;20.50;94.10;;;;;;4179657;28;20092;-74
2021/11/28 00:16:25;;;;;;;56.42;41.15;;;20.60;94.10;;;;;;4177886;28;20131;-73
2021/11/28 00:18:49;;;;;;;54.45;41.88;;;20.60;93.70;;;;;;4169312;28;20069;-74
2021/11/28 00:21:13;;;;;;;54.03;40.08;;;20.70;93.90;;;;;;4175392;28;20115;-73
2021/11/28 00:23:38;;;;;;;64.97;40.47;;;20.60;93.70;;;;;;4181775;28;20460;-73
2021/11/28 00:26:02;;;;;;;47.75;37.90;;;20.70;93.80;;;;;;4176778;28;20149;-74
2021/11/28 00:28:27;;;;;;;52.78;37.65;;;20.60;93.60;;;;;;4170923;28;20179;-74
2021/11/28 00:30:51;;;;;;;47.53;35.17;;;20.80;93.60;;;;;;4177595;28;20466;-73
2021/11/28 00:33:15;;;;;;;46.28;33.55;;;20.80;93.50;;;;;;4166168;28;20061;-73
2021/11/28 00:35:40;;;;;;;44.20;31.65;;;20.80;93.30;;;;;;4198226;28;20192;-73
2021/11/28 00:37:47;;;;;;;42.10;31.42;;;20.80;93.00;;;;;;4200125;28;20029;-73
2021/11/28 00:39:53;;;;;;;43.53;31.00;;;20.80;93.10;;;;;;4194218;28;20054;-73
2021/11/28 00:42:00;;;;;;;40.13;28.98;;;21.00;92.60;;;;;;4189668;28;20045;-73
2021/11/28 00:44:08;;;;;;;43.15;28.80;;;21.00;92.50;;;;;;4196839;28;20036;-73
2021/11/28 00:46:25;;;;;;;36.75;26.50;;;21.00;92.50;;;;;;4193698;28;20470;-73
2021/11/28 00:48:30;;;;;;;36.15;27.27;;;21.10;92.10;;;;;;4190466;28;20053;-72
2021/11/28 00:50:45;;;;;;;36.65;27.25;;;21.10;92.00;;;;;;4186716;28;20047;-71
2021/11/28 00:52:51;;;;;;;46.95;28.35;;;21.10;91.90;;;;;;4166217;28;20072;-71
2021/11/28 00:55:13;;;;;;;45.80;28.70;;;21.20;92.00;;;;;;4189394;28;20105;-73
2021/11/28 00:57:18;;;;;;;40.30;27.48;;;21.10;91.90;;;;;;4172599;28;20140;-72
2021/11/28 00:59:24;;;;;;;41.45;28.05;;;21.30;92.00;;;;;;4181079;28;20047;-72
2021/11/28 01:01:29;;;;;;;42.55;27.60;;;21.30;92.00;;;;;;4194195;28;20105;-72
2021/11/28 01:03:36;;;;;;;42.10;27.13;;;21.40;92.00;;;;;;4157700;28;20073;-72
2021/11/28 01:05:40;;;;;;;38.50;26.80;;;21.50;91.80;;;;;;4185487;28;20125;-72
2021/11/28 01:07:47;;;;;;;37.83;25.98;;;21.50;91.60;;;;;;4191586;28;20551;-72
2021/11/28 01:09:53;;;;;;;37.38;24.88;;;21.60;91.40;;;;;;4179807;28;20049;-72
2021/11/28 01:11:58;;;;;;;40.17;26.70;;;21.60;90.60;;;;;;4191253;28;20713;-72
2021/11/28 01:14:03;;;;;;;33.97;25.58;;;21.60;91.00;;;;;;4192863;28;20110;-72
2021/11/28 01:16:10;;;;;;;35.15;25.75;;;21.60;90.70;;;;;;4193327;28;20083;-70
2021/11/28 01:18:17;;;;;;;39.47;25.88;;;21.60;90.60;;;;;;4192321;28;20067;-71
2021/11/28 01:20:21;;;;;;;33.33;26.02;;;21.70;90.60;;;;;;4194259;28;20402;-71
2021/11/28 01:22:27;;;;;;;37.00;25.90;;;21.80;90.80;;;;;;4192580;28;20036;-71
2021/11/28 01:24:35;;;;;;;34.33;23.95;;;21.70;90.50;;;;;;4193132;28;20403;-71
2021/11/28 01:26:42;;;;;;;34.20;25.58;;;21.80;90.50;;;;;;4172975;28;20563;-71
2021/11/28 01:28:49;;;;;;;33.60;24.77;;;21.80;90.50;;;;;;4176570;28;20048;-71
2021/11/28 01:30:57;;;;;;;33.28;24.63;;;21.70;90.30;;;;;;4175923;28;20569;-71
2021/11/28 01:33:21;;;;;;;38.75;23.23;;;21.80;90.20;;;;;;4168134;28;20119;-70
2021/11/28 01:35:45;;;;;;;37.25;24.33;;;21.90;90.40;;;;;;4179357;28;20152;-71
2021/11/28 01:38:10;;;;;;;31.90;22.60;;;22.00;90.00;;;;;;4181066;28;20053;-71
2021/11/28 01:40:34;;;;;;;34.55;23.48;;;22.00;89.70;;;;;;4178133;28;20071;-72
2021/11/28 01:43:18;;;;;;;42.05;22.40;;;22.10;90.10;;;;;;4178063;28;20529;-72
2021/11/28 01:45:43;;;;;;;36.83;23.00;;;22.10;90.00;;;;;;4178848;28;20515;-71
2021/11/28 01:48:09;;;;;;;34.22;22.85;;;22.20;89.80;;;;;;4165962;28;20076;-71
2021/11/28 01:50:34;;;;;;;33.72;21.23;;;22.20;89.90;;;;;;4163843;28;20041;-71
2021/11/28 01:52:59;;;;;;;32.63;21.95;;;22.40;89.90;;;;;;4172216;28;20080;-71
2021/11/28 01:55:25;;;;;;;30.95;22.45;;;22.50;89.70;;;;;;4164058;28;20056;-71
2021/11/28 01:57:50;;;;;;;34.78;21.65;;;22.50;88.60;;;;;;4163794;28;20049;-71
2021/11/28 02:00:18;;;;;;;27.92;21.20;;;22.50;88.30;;;;;;4149864;28;20049;-71
2021/11/28 02:02:42;;;;;;;26.60;20.55;;;22.60;88.60;;;;;;4178459;28;20126;-71
2021/11/28 02:05:13;;;;;;;33.72;21.30;;;22.60;87.30;;;;;;4165022;28;20053;-71
2021/11/28 02:07:38;;;;;;;29.00;21.40;;;22.60;87.30;;;;;;4165260;28;20050;-71
2021/11/28 02:10:04;;;;;;;31.75;20.95;;;22.70;87.30;;;;;;4179057;28;20056;-70
2021/11/28 02:12:30;;;;;;;34.10;20.08;;;22.70;86.90;;;;;;4160581;28;20057;-71
2021/11/28 02:14:54;;;;;;;31.63;20.10;;;22.80;86.50;;;;;;4171682;28;20110;-71
2021/11/28 02:17:18;;;;;;;29.13;19.73;;;22.90;86.00;;;;;;4163001;28;20077;-72
2021/11/28 02:19:42;;;;;;;31.85;20.17;;;22.90;84.20;;;;;;4180175;28;20053;-72
2021/11/28 02:22:07;;;;;;;28.55;20.55;;;22.90;85.40;;;;;;4167193;28;20139;-72
2021/11/28 02:24:31;;;;;;;31.67;20.65;;;23.00;85.40;;;;;;4179145;28;20041;-72
2021/11/28 02:26:56;;;;;;;35.70;21.55;;;23.10;85.50;;;;;;4181112;28;20080;-72
2021/11/28 02:29:20;;;;;;;28.65;19.90;;;23.20;86.10;;;;;;4168053;28;20049;-72
2021/11/28 02:31:44;;;;;;;31.10;20.45;;;23.30;84.90;;;;;;4180118;28;20049;-72
2021/11/28 02:34:08;;;;;;;32.13;19.33;;;23.30;84.00;;;;;;4167567;28;20056;-72
2021/11/28 02:36:33;;;;;;;30.42;19.90;;;23.30;84.10;;;;;;4180195;28;20435;-72
2021/11/28 02:38:57;;;;;;;30.27;19.73;;;23.30;84.20;;;;;;4168082;28;20038;-72
2021/11/28 02:41:22;;;;;;;26.05;20.35;;;23.40;84.10;;;;;;4166633;28;20056;-72
2021/11/28 02:43:47;;;;;;;31.98;20.17;;;23.50;83.00;;;;;;4166858;28;20046;-72
2021/11/28 02:46:14;;;;;;;28.38;19.05;;;23.50;83.50;;;;;;4178373;28;20055;-72
2021/11/28 02:48:39;;;;;;;27.17;20.45;;;23.50;83.20;;;;;;4167208;28;20051;-73
2021/11/28 02:51:04;;;;;;;28.38;19.63;;;23.60;83.40;;;;;;4180671;28;20064;-72
2021/11/28 02:53:30;;;;;;;27.92;19.48;;;23.70;84.00;;;;;;4168812;28;20046;-72
2021/11/28 02:55:56;;;;;;;27.38;19.05;;;23.80;84.00;;;;;;4165002;28;20053;-72
2021/11/28 02:58:21;;;;;;;28.45;18.77;;;23.90;83.20;;;;;;4167260;28;20105;-72
2021/11/28 03:00:47;;;;;;;36.38;19.35;;;23.90;81.70;;;;;;4166322;28;20511;-72
2021/11/28 03:03:12;;;;;;;27.83;18.25;;;24.00;82.90;;;;;;4165391;28;20050;-72
2021/11/28 03:05:37;;;;;;;29.55;18.73;;;24.10;82.20;;;;;;4167371;28;20416;-72
2021/11/28 03:08:01;;;;;;;26.40;18.50;;;24.10;82.30;;;;;;4180866;28;20049;-72
2021/11/28 03:10:46;;;;;;;30.48;17.10;;;24.20;82.00;;;;;;4179550;28;20053;-72
2021/11/28 03:13:18;;;;;;;26.70;16.33;;;24.30;81.00;;;;;;4169351;28;20465;-72
2021/11/28 03:15:42;;;;;;;24.98;15.70;;;24.30;80.00;;;;;;4180993;28;20091;-73
2021/11/28 03:18:14;;;;;;;27.50;16.40;;;24.40;79.50;;;;;;4181248;28;20090;-73
2021/11/28 03:20:39;;;;;;;30.10;15.43;;;24.50;78.20;;;;;;4162190;28;20544;-71
2021/11/28 03:23:03;;;;;;;23.80;15.38;;;24.50;78.40;;;;;;4181493;28;20075;-72
2021/11/28 03:25:30;;;;;;;25.25;15.30;;;24.60;78.00;;;;;;4179547;28;20443;-72
2021/11/28 03:27:56;;;;;;;25.08;15.90;;;24.70;77.30;;;;;;4167291;28;20057;-73
2021/11/28 03:30:22;;;;;;;28.52;17.58;;;24.70;77.00;;;;;;4165834;28;20057;-71
2021/11/28 03:33:06;;;;;;;29.30;20.20;;;24.70;77.60;;;;;;4181281;28;20049;-71
2021/11/28 03:35:43;;;;;;;29.02;16.17;;;24.80;77.20;;;;;;4178952;28;20056;-71
2021/11/28 03:38:09;;;;;;;22.52;14.77;;;25.00;77.30;;;;;;4166478;28;20034;-71
2021/11/28 03:40:35;;;;;;;21.75;15.18;;;24.90;76.40;;;;;;4161447;28;20072;-71
2021/11/28 03:43:00;;;;;;;24.38;15.65;;;24.90;76.40;;;;;;4172653;28;20080;-71
2021/11/28 03:45:25;;;;;;;26.13;15.25;;;24.90;76.40;;;;;;4164457;28;20850;-72
2021/11/28 03:48:00;;;;;;;22.38;14.32;;;25.10;76.00;;;;;;4154160;28;20059;-71
2021/11/28 03:51:11;;;;;;;21.35;13.98;;;25.20;75.20;;;;;;4170666;28;20049;-72
2021/11/28 03:53:43;;;;;;;28.02;12.95;;;25.30;76.00;;;;;;4182446;28;20392;-72
2021/11/28 03:56:25;;;;;;;21.73;12.95;;;25.40;74.90;;;;;;4183794;28;20045;-70
2021/11/28 03:58:50;;;;;;;24.05;13.65;;;25.40;74.70;;;;;;4190889;28;20057;-71
2021/11/28 04:01:15;;;;;;;25.83;14.68;;;25.40;74.60;;;;;;4179993;28;20052;-71
2021/11/28 04:03:39;;;;;;;25.08;14.85;;;25.40;74.50;;;;;;4167270;28;20091;-70
2021/11/28 04:06:23;;;;;;;26.02;15.70;;;25.60;75.10;;;;;;4174920;28;20052;-71
2021/11/28 04:08:51;;;;;;;21.70;14.23;;;25.50;75.20;;;;;;4192801;28;20506;-72
2021/11/28 04:11:15;;;;;;;19.20;13.05;;;25.70;74.60;;;;;;4180155;28;20099;-71
2021/11/28 04:13:40;;;;;;;16.83;11.88;;;25.70;72.00;;;;;;4167258;28;20049;-71
2021/11/28 04:16:05;;;;;;;20.23;11.80;;;25.70;72.10;;;;;;4166200;28;20408;-71
2021/11/28 04:18:30;;;;;;;18.38;12.38;;;25.80;71.10;;;;;;4167385;28;20427;-71
2021/11/28 04:20:55;;;;;;;22.38;13.02;;;25.80;71.70;;;;;;4150090;28;20041;-72
2021/11/28 04:23:19;;;;;;;22.17;13.40;;;25.90;73.80;;;;;;4173361;28;20098;-72
2021/11/28 04:25:45;;;;;;;25.98;13.02;;;26.00;73.30;;;;;;4210500;28;20073;-72
2021/11/28 04:28:09;;;;;;;24.30;13.98;;;26.00;72.70;;;;;;4169363;28;20088;-71
2021/11/28 04:30:33;;;;;;;21.05;12.43;;;26.10;71.70;;;;;;4180603;28;20053;-71
2021/11/28 04:32:59;;;;;;;31.80;15.45;;;26.10;72.00;;;;;;4167352;28;20049;-71
2021/11/28 04:35:23;;;;;;;28.40;15.95;;;26.30;72.70;;;;;;4166252;28;20136;-72
2021/11/28 04:37:48;;;;;;;21.60;12.45;;;26.30;72.10;;;;;;4166058;28;20573;-71
2021/11/28 04:40:12;;;;;;;17.08;12.82;;;26.20;71.20;;;;;;4164196;28;20045;-72
2021/11/28 04:42:37;;;;;;;19.52;13.25;;;26.30;71.40;;;;;;4162028;28;20046;-72
2021/11/28 04:45:03;;;;;;;22.83;14.10;;;26.30;72.10;;;;;;4178024;28;20144;-71
2021/11/28 04:47:28;;;;;;;29.02;17.60;;;26.20;72.30;;;;;;4165419;28;20057;-71
2021/11/28 04:49:58;;;;;;;33.40;22.45;;;26.40;72.90;;;;;;4165883;28;20084;-72
2021/11/28 04:52:23;;;;;;;28.98;18.90;;;26.40;72.60;;;;;;4169424;28;20067;-72
2021/11/28 04:54:47;;;;;;;28.67;16.30;;;26.50;72.80;;;;;;4189793;28;20067;-71
2021/11/28 04:57:12;;;;;;;18.90;13.70;;;26.50;71.30;;;;;;4165845;28;20461;-72
2021/11/28 04:59:36;;;;;;;35.55;22.38;;;26.50;71.80;;;;;;4193714;28;20418;-71
2021/11/28 05:02:01;;;;;;;36.08;23.00;;;26.50;72.00;;;;;;4179241;28;20041;-71
2021/11/28 05:04:26;;;;;;;25.73;13.93;;;26.60;72.20;;;;;;4175902;28;20063;-70
2021/11/28 05:07:02;;;;;;;20.05;12.20;;;26.70;71.80;;;;;;4160175;28;20370;-70
2021/11/28 05:09:44;;;;;;;17.95;12.27;;;26.70;71.10;;;;;;4153744;28;20539;-70
2021/11/28 05:12:09;;;;;;;18.80;11.65;;;26.80;70.90;;;;;;4162499;28;20715;-71
2021/11/28 05:14:35;;;;;;;18.70;10.85;;;27.00;69.80;;;;;;4177418;28;20045;-70
2021/11/28 05:16:59;;;;;;;19.80;11.02;;;27.00;69.50;;;;;;4146549;28;20108;-70
2021/11/28 05:19:31;;;;;;;19.23;11.27;;;26.90;69.30;;;;;;4185598;28;20500;-70
2021/11/28 05:22:11;;;;;;;16.45;11.05;;;27.00;70.10;;;;;;4163756;28;20045;-70
2021/11/28 05:24:37;;;;;;;24.08;10.93;;;27.20;68.70;;;;;;4147573;28;20064;-70
2021/11/28 05:27:02;;;;;;;18.45;10.48;;;27.10;68.30;;;;;;4166862;28;20503;-69
2021/11/28 05:29:28;;;;;;;21.33;11.40;;;27.20;69.20;;;;;;4163702;28;20428;-70
2021/11/28 05:31:52;;;;;;;17.10;10.25;;;27.30;68.30;;;;;;4176180;28;20056;-70
2021/11/28 05:34:29;;;;;;;15.52;11.00;;;27.30;67.30;;;;;;4177590;28;20048;-70
2021/11/28 05:37:15;;;;;;;21.05;10.75;;;27.30;68.20;;;;;;4176532;28;20470;-71
2021/11/28 05:39:43;;;;;;;13.85;9.98;;;27.40;68.30;;;;;;4163456;28;20156;-70
2021/11/28 05:42:08;;;;;;;29.67;18.25;;;27.50;68.50;;;;;;4162111;28;20042;-70
2021/11/28 05:44:34;;;;;;;17.27;11.60;;;27.60;68.40;;;;;;4178516;28;20138;-70
2021/11/28 05:47:11;;;;;;;20.67;13.30;;;27.60;67.80;;;;;;4160848;28;20120;-70
2021/11/28 05:49:54;;;;;;;19.02;10.93;;;27.60;67.40;;;;;;4175930;28;20053;-70
2021/11/28 05:52:38;;;;;;;16.27;9.98;;;27.70;67.20;;;;;;4177889;28;20045;-70
2021/11/28 05:55:05;;;;;;;14.13;9.15;;;27.70;67.60;;;;;;4177444;28;20049;-69
2021/11/28 05:57:29;;;;;;;15.20;9.60;;;27.70;66.60;;;;;;4176404;28;20106;-71
2021/11/28 05:59:54;;;;;;;18.08;9.30;;;27.80;66.80;;;;;;4159551;28;20057;-71
2021/11/28 06:02:18;;;;;;;15.30;8.95;;;27.80;66.40;;;;;;4164854;28;20538;-71
2021/11/28 06:04:51;;;;;;;16.83;9.27;;;27.80;65.90;;;;;;4164193;28;20049;-69
2021/11/28 06:07:28;;;;;;;16.20;8.82;;;27.80;65.20;;;;;;4193125;28;20454;-71
2021/11/28 06:09:52;;;;;;;15.32;8.82;;;27.90;64.90;;;;;;4178383;28;20055;-70
2021/11/28 06:12:17;;;;;;;14.07;8.95;;;27.90;66.10;;;;;;4178919;28;20079;-71
2021/11/28 06:14:41;;;;;;;20.38;8.95;;;28.10;65.50;;;;;;4163330;28;20052;-71
2021/11/28 06:17:15;;;;;;;12.43;8.52;;;28.00;64.30;;;;;;4162584;28;20119;-71
2021/11/28 06:19:51;;;;;;;15.82;8.65;;;28.00;64.70;;;;;;4178270;28;20495;-70
2021/11/28 06:22:36;;;;;;;17.15;8.65;;;28.00;65.70;;;;;;4179737;28;20053;-70
2021/11/28 06:25:03;;;;;;;14.93;8.57;;;28.10;64.70;;;;;;4163657;28;20056;-71
2021/11/28 06:27:50;;;;;;;19.38;8.30;;;28.10;64.20;;;;;;4152888;28;20054;-71
2021/11/28 06:30:14;;;;;;;14.27;7.97;;;28.00;65.30;;;;;;4156838;28;20048;-71
2021/11/28 06:32:53;;;;;;;15.40;8.23;;;28.00;64.90;;;;;;4152885;28;20389;-71
2021/11/28 06:35:37;;;;;;;15.35;8.43;;;28.00;64.80;;;;;;4130244;28;20050;-71
2021/11/28 06:38:13;;;;;;;12.02;7.88;;;28.20;63.40;;;;;;4153016;28;20072;-71
2021/11/28 06:40:50;;;;;;;17.50;7.95;;;28.10;64.10;;;;;;4153029;28;20067;-71
2021/11/28 06:43:15;;;;;;;15.52;8.35;;;28.30;63.50;;;;;;4152500;28;20084;-70
2021/11/28 06:45:39;;;;;;;14.45;8.00;;;28.20;63.60;;;;;;4129743;28;20046;-70
2021/11/28 06:48:05;;;;;;;12.50;8.18;;;28.30;64.10;;;;;;4143464;28;20053;-71
2021/11/28 06:50:42;;;;;;;13.02;8.45;;;28.40;63.40;;;;;;4147575;28;20053;-72
2021/11/28 06:53:11;;;;;;;13.70;8.27;;;28.40;64.10;;;;;;4144138;28;20041;-71
2021/11/28 06:55:54;;;;;;;;;;;28.40;63.10;;;;;;4146769;28;20594;-72
2021/11/28 06:58:40;;;;;;;17.02;9.00;;;28.40;63.60;;;;;;4149230;28;19928;-71
2021/11/28 07:01:07;;;;;;;22.83;9.73;;;28.40;63.30;;;;;;4175357;28;20529;-72
2021/11/28 07:03:31;;;;;;;18.75;8.20;;;28.60;64.20;;;;;;4178026;28;20037;-70
2021/11/28 07:06:15;;;;;;;18.25;8.45;;;28.60;63.70;;;;;;4175518;28;20487;-70
2021/11/28 07:08:48;;;;;;;16.45;8.85;;;28.60;63.80;;;;;;4162845;28;20642;-70
2021/11/28 07:11:12;;;;;;;16.35;9.32;;;28.60;64.90;;;;;;4162260;28;20041;-70
2021/11/28 07:13:36;;;;;;;16.13;8.43;;;28.60;63.50;;;;;;4163522;28;20108;-70
2021/11/28 07:16:01;;;;;;;16.00;8.60;;;28.50;63.70;;;;;;4163312;28;20057;-70
2021/11/28 07:18:38;;;;;;;16.38;8.43;;;28.60;62.90;;;;;;4163778;28;20054;-70
2021/11/28 07:21:02;;;;;;;14.10;8.43;;;28.40;63.40;;;;;;4176275;28;20095;-69
2021/11/28 07:23:27;;;;;;;16.15;8.43;;;28.50;64.30;;;;;;4164603;28;20064;-69
2021/11/28 07:25:54;;;;;;;12.05;8.00;;;28.50;64.40;;;;;;4159417;28;20516;-69
2021/11/28 07:28:25;;;;;;;15.43;8.40;;;28.60;63.90;;;;;;4163566;28;20424;-69
2021/11/28 07:30:51;;;;;;;16.55;8.60;;;28.60;63.70;;;;;;4161357;28;20059;-70
2021/11/28 07:33:28;;;;;;;18.70;8.00;;;28.60;63.20;;;;;;4175089;28;20045;-70
2021/11/28 07:36:05;;;;;;;18.80;9.02;;;28.60;64.10;;;;;;4177896;28;20088;-71
2021/11/28 07:38:17;;;;;;;15.60;9.43;;;28.60;64.40;;;;;;4177397;28;20070;-69
2021/11/28 07:40:21;;;;;;;15.02;9.95;;;28.60;64.80;;;;;;4177474;28;20094;-70
2021/11/28 07:42:46;;;;;;;19.83;9.15;;;28.60;64.60;;;;;;4176649;28;20033;-69
2021/11/28 07:45:10;;;;;;;15.35;8.90;;;28.60;63.80;;;;;;4175599;28;20048;-68
2021/11/28 07:47:48;;;;;;;20.95;9.30;;;28.60;63.50;;;;;;4173253;28;20052;-69
2021/11/28 07:50:18;;;;;;;13.60;9.13;;;28.60;63.60;;;;;;4160580;28;20519;-69
2021/11/28 07:52:24;;;;;;;14.10;8.50;;;28.60;63.60;;;;;;4175704;28;20057;-70
2021/11/28 07:54:49;;;;;;;16.50;8.43;;;28.60;62.90;;;;;;4141706;28;20095;-70
2021/11/28 07:57:06;;;;;;;13.40;8.60;;;28.60;63.90;;;;;;4170826;28;20045;-70
2021/11/28 07:59:42;;;;;;;15.55;8.68;;;28.60;64.30;;;;;;4178931;28;20059;-70
2021/11/28 08:02:07;;;;;;;16.75;8.52;;;28.60;64.30;;;;;;4163132;28;20049;-70
2021/11/28 08:04:35;;;;;;;12.80;9.07;;;28.60;64.60;;;;;;4174749;28;20119;-70
2021/11/28 08:06:52;;;;;;;14.82;9.32;;;28.60;64.70;;;;;;4162397;28;20045;-70
2021/11/28 08:09:09;;;;;;;23.20;10.52;;;28.60;64.60;;;;;;4147071;28;20442;-69
2021/11/28 08:11:43;;;;;;;14.85;8.98;;;28.70;64.30;;;;;;4154348;28;20065;-69
2021/11/28 08:13:51;;;;;;;17.42;9.68;;;28.60;64.70;;;;;;4160453;28;20064;-69
2021/11/28 08:16:15;;;;;;;14.27;8.65;;;28.60;64.10;;;;;;4157322;28;20049;-69
2021/11/28 08:18:20;;;;;;;22.23;9.48;;;28.70;64.40;;;;;;4160343;28;20435;-69
2021/11/28 08:20:24;;;;;;;16.75;9.77;;;28.60;64.50;;;;;;4162528;28;20037;-69
2021/11/28 08:22:48;;;;;;;19.17;9.38;;;28.60;63.50;;;;;;4176573;28;20083;-69
2021/11/28 08:25:14;;;;;;;21.40;10.63;;;28.70;64.80;;;;;;4158239;28;20049;-69
2021/11/28 08:27:18;;;;;;;18.02;9.15;;;28.70;64.90;;;;;;4158891;28;20053;-69
2021/11/28 08:29:23;;;;;;;17.88;9.43;;;28.70;63.80;;;;;;4159021;28;20560;-69
2021/11/28 08:31:47;;;;;;;19.75;10.27;;;28.70;64.00;;;;;;4142818;28;20357;-69
2021/11/28 08:34:24;;;;;;;18.65;10.60;;;28.70;64.70;;;;;;4150872;28;20511;-69
2021/11/28 08:37:08;;;;;;;18.35;9.50;;;28.70;63.80;;;;;;4154687;28;20502;-69
2021/11/28 08:39:33;;;;;;;17.08;7.90;;;28.60;63.90;;;;;;4141694;28;20751;-70
2021/11/28 08:41:57;;;;;;;16.70;8.70;;;28.70;63.00;;;;;;4154707;28;20053;-69
2021/11/28 08:44:21;;;;;;;17.42;8.70;;;28.60;63.60;;;;;;4158736;28;20053;-69
2021/11/28 08:46:46;;;;;;;15.30;9.07;;;28.60;63.80;;;;;;4156847;28;20279;-69
2021/11/28 08:49:10;;;;;;;18.67;8.60;;;28.60;64.20;;;;;;4158400;28;20053;-69
2021/11/28 08:51:35;;;;;;;18.55;10.20;;;28.70;64.30;;;;;;4157069;28;20103;-69
2021/11/28 08:53:59;;;;;;;14.30;8.85;;;28.70;64.00;;;;;;4142823;28;20491;-69
2021/11/28 08:56:24;;;;;;;15.88;9.40;;;28.60;64.20;;;;;;4146223;28;20508;-69
2021/11/28 08:58:48;;;;;;;20.23;10.60;;;28.60;64.50;;;;;;4144145;28;20054;-69
2021/11/28 09:01:12;;;;;;;20.67;9.95;;;28.60;64.90;;;;;;4157371;28;20080;-69
2021/11/28 09:03:38;;;;;;;15.95;9.93;;;28.70;64.60;;;;;;4172078;28;20064;-69
2021/11/28 09:06:04;;;;;;;16.67;9.63;;;28.60;64.80;;;;;;4156979;28;20049;-70
2021/11/28 09:08:29;;;;;;;17.73;8.80;;;28.60;64.50;;;;;;4158968;28;20119;-69
2021/11/28 09:10:53;;;;;;;15.00;8.80;;;28.60;64.90;;;;;;4156955;28;20127;-70
2021/11/28 09:13:18;;;;;;;16.73;8.82;;;28.60;64.50;;;;;;4144833;28;20172;-70
2021/11/28 09:15:42;;;;;;;21.88;9.18;;;28.60;64.60;;;;;;4141624;28;20062;-70
2021/11/28 09:18:33;;;;;;;20.15;8.88;;;28.60;64.90;;;;;;4152471;28;20049;-70
2021/11/28 09:21:00;;;;;;;18.95;9.80;;;28.50;64.30;;;;;;4158823;28;20054;-69
2021/11/28 09:26:01;;;;;;;15.57;10.75;;;28.50;64.90;;;;;;4158245;28;20103;-69
2021/11/28 09:28:26;;;;;;;26.60;11.40;;;28.50;64.60;;;;;;4157364;28;20115;-68
2021/11/28 09:30:50;;;;;;;17.63;11.60;;;28.50;64.10;;;;;;4156999;28;20061;-68
2021/11/28 09:33:14;;;;;;;19.63;10.57;;;28.50;64.80;;;;;;4158771;28;20057;-68
2021/11/28 09:35:43;;;;;;;22.20;11.23;;;28.50;64.50;;;;;;4157102;28;20378;-69
2021/11/28 09:38:07;;;;;;;17.88;10.57;;;28.50;64.80;;;;;;4158265;28;20076;-70
2021/11/28 09:40:31;;;;;;;12.13;8.95;;;28.50;64.70;;;;;;4156981;28;20487;-69
2021/11/28 09:42:58;;;;;;;16.23;9.32;;;28.40;64.60;;;;;;4141975;28;20488;-69
2021/11/28 09:45:23;;;;;;;15.38;8.70;;;28.40;64.60;;;;;;4141597;28;20622;-69
2021/11/28 09:47:47;;;;;;;25.25;10.25;;;28.40;64.90;;;;;;4144470;28;20073;-69
2021/11/28 09:50:12;;;;;;;18.30;9.10;;;28.40;64.90;;;;;;4143971;28;20527;-70
2021/11/28 09:52:36;;;;;;;22.70;9.32;;;28.40;65.30;;;;;;4154227;28;20049;-70
2021/11/28 09:55:03;;;;;;;17.67;10.18;;;28.40;65.70;;;;;;4156265;28;20096;-70
2021/11/28 09:57:27;;;;;;;13.48;9.38;;;28.40;65.40;;;;;;4157905;28;20046;-70
2021/11/28 09:59:53;;;;;;;19.23;10.48;;;28.30;65.70;;;;;;4158351;28;20108;-70
2021/11/28 10:02:22;;;;;;;16.70;9.55;;;28.30;66.30;;;;;;4144752;28;20050;-70
2021/11/28 10:04:46;;;;;;;25.08;10.70;;;28.20;66.20;;;;;;4173858;28;20112;-70
2021/11/28 10:07:14;;;;;;;44.55;11.18;;;28.20;66.80;;;;;;4173869;28;20087;-70
2021/11/28 10:09:38;;;;;;;56.72;12.38;;;28.20;66.90;;;;;;4176018;28;20442;-70
2021/11/28 10:12:14;;;;;;;33.20;10.75;;;28.20;66.80;;;;;;4174550;28;20279;-70
2021/11/28 10:14:38;;;;;;;28.73;11.13;;;28.10;67.40;;;;;;4175952;28;20064;-70
2021/11/28 10:17:03;;;;;;;24.98;10.20;;;28.10;67.20;;;;;;4175333;28;20087;-70
2021/11/28 10:19:32;;;;;;;25.05;10.30;;;28.00;67.60;;;;;;4174831;28;20053;-70
2021/11/28 10:21:56;;;;;;;21.40;11.05;;;28.00;67.90;;;;;;4174527;28;20041;-71
2021/11/28 10:24:20;;;;;;;25.83;13.73;;;27.90;68.00;;;;;;4176472;28;20049;-70
2021/11/28 10:26:57;;;;;;;19.90;13.00;;;27.80;67.90;;;;;;4172180;28;20236;-70
2021/11/28 10:29:24;;;;;;;30.38;13.68;;;27.80;69.00;;;;;;4179426;28;20049;-70
2021/11/28 10:31:49;;;;;;;27.58;14.25;;;27.70;68.80;;;;;;4173293;28;20048;-72
2021/11/28 10:34:18;;;;;;;27.83;15.25;;;27.70;69.30;;;;;;4178266;28;20055;-70
2021/11/28 10:36:42;;;;;;;35.78;16.55;;;27.80;69.00;;;;;;4172791;28;20061;-70
2021/11/28 10:39:26;;;;;;;29.90;17.40;;;27.70;69.60;;;;;;4166557;28;20048;-69
2021/11/28 10:41:55;;;;;;;37.75;18.58;;;27.60;69.90;;;;;;4181138;28;20052;-69
2021/11/28 10:44:21;;;;;;;36.47;19.15;;;27.70;69.90;;;;;;4174082;28;20048;-69
2021/11/28 10:46:46;;;;;;;38.95;18.90;;;27.70;70.00;;;;;;4184472;28;20523;-69
2021/11/28 10:49:13;;;;;;;35.05;20.38;;;27.70;70.40;;;;;;4174858;28;20084;-69
2021/11/28 10:51:38;;;;;;;38.35;21.20;;;27.70;70.60;;;;;;4172877;28;20057;-67
2021/11/28 10:54:15;;;;;;;63.58;26.27;;;27.70;70.90;;;;;;4176490;28;20099;-69
2021/11/28 10:56:40;;;;;;;58.75;29.73;;;27.60;71.20;;;;;;4143677;28;20053;-69
2021/11/28 10:59:19;;;;;;;61.55;31.25;;;27.60;71.50;;;;;;4144798;28;20290;-69
2021/11/28 11:01:44;;;;;;;41.63;22.17;;;27.60;71.70;;;;;;4142997;28;20053;-70
2021/11/28 11:04:18;;;;;;;39.00;21.65;;;27.40;70.60;;;;;;4144461;28;20169;-70
2021/11/28 11:06:42;;;;;;;38.83;20.90;;;27.30;71.10;;;;;;4144994;28;20060;-69
2021/11/28 11:09:24;;;;;;;37.35;19.77;;;27.40;71.20;;;;;;4126870;28;20144;-69
2021/11/28 11:11:50;;;;;;;35.70;19.33;;;27.40;71.20;;;;;;4123775;28;20058;-69
2021/11/28 11:14:15;;;;;;;38.05;19.92;;;27.40;71.40;;;;;;4127835;28;20517;-69
2021/11/28 11:16:41;;;;;;;33.83;17.20;;;27.40;71.70;;;;;;4127809;28;20104;-72
2021/11/28 11:19:28;;;;;;;37.45;17.50;;;27.40;72.40;;;;;;4131961;28;20481;-70
2021/11/28 11:22:07;;;;;;;34.67;18.92;;;27.40;72.90;;;;;;4126667;28;20070;-70
2021/11/28 11:24:33;;;;;;;28.30;17.25;;;27.30;72.80;;;;;;4144977;28;20127;-69
2021/11/28 11:27:09;;;;;;;33.88;20.13;;;27.10;73.00;;;;;;4144443;28;20598;-69
2021/11/28 11:29:34;;;;;;;34.88;20.67;;;27.20;72.90;;;;;;4144837;28;20152;-71
2021/11/28 11:31:58;;;;;;;36.00;20.90;;;27.10;73.00;;;;;;4144375;28;20058;-70
2021/11/28 11:34:30;;;;;;;31.65;20.98;;;27.10;73.50;;;;;;4144020;28;20137;-69
2021/11/28 11:36:56;;;;;;;35.90;20.00;;;27.10;73.00;;;;;;4143745;28;20093;-68
2021/11/28 11:39:23;;;;;;;33.65;19.08;;;27.00;72.40;;;;;;4145246;28;20495;-69
2021/11/28 11:41:47;;;;;;;35.67;20.42;;;27.10;74.20;;;;;;4157726;28;20048;-69
2021/11/28 11:44:16;;;;;;;33.85;20.65;;;27.10;73.50;;;;;;4144661;28;20050;-69
2021/11/28 11:46:45;;;;;;;38.08;22.30;;;27.10;73.60;;;;;;4153835;28;20080;-69
2021/11/28 11:48:52;;;;;;;36.47;20.17;;;27.10;73.80;;;;;;4159853;28;20136;-69
2021/11/28 11:50:57;;;;;;;31.65;18.70;;;27.10;73.80;;;;;;4156712;28;20742;-69
2021/11/28 11:53:03;;;;;;;32.10;18.80;;;26.90;73.80;;;;;;4159984;28;20133;-69
2021/11/28 11:55:14;;;;;;;36.83;19.02;;;26.90;74.00;;;;;;4157364;28;20042;-70
2021/11/28 11:57:27;;;;;;;36.00;19.75;;;26.90;74.20;;;;;;4156460;28;20049;-69
2021/11/28 11:59:49;;;;;;;37.92;19.52;;;26.80;74.20;;;;;;4160490;28;20045;-69
2021/11/28 12:02:01;;;;;;;37.58;19.17;;;26.90;74.40;;;;;;4159166;28;20052;-69
2021/11/28 12:04:06;;;;;;;34.50;18.88;;;26.80;73.90;;;;;;4179225;28;20341;-69
2021/11/28 12:06:11;;;;;;;32.35;18.48;;;26.80;74.10;;;;;;4192420;28;20059;-68
2021/11/28 12:08:19;;;;;;;35.47;18.95;;;26.80;74.10;;;;;;4190674;28;20048;-69
2021/11/28 12:10:37;;;;;;;27.35;17.83;;;26.70;74.80;;;;;;4191694;28;20584;-68
2021/11/28 12:12:41;;;;;;;34.20;19.05;;;26.70;74.80;;;;;;4190873;28;20510;-70
2021/11/28 12:15:10;;;;;;;33.30;19.08;;;26.60;74.70;;;;;;4192262;28;20055;-70
2021/11/28 12:17:40;;;;;;;37.15;18.88;;;26.50;75.40;;;;;;4189254;28;20131;-68
2021/11/28 12:19:44;;;;;;;43.63;18.48;;;26.50;76.00;;;;;;4192265;28;20317;-70
2021/11/28 12:21:49;;;;;;;35.50;18.83;;;26.50;75.70;;;;;;4191120;28;20426;-70
2021/11/28 12:24:11;;;;;;;30.90;19.27;;;26.50;75.90;;;;;;4191982;28;20040;-70
2021/11/28 12:26:36;;;;;;;38.60;19.10;;;26.50;76.50;;;;;;4191623;28;20090;-70